sensor_id;sensor_type;location;lat;lon;timestamp;P1;durP1;ratioP1;P2;durP2;ratioP2
45618;SDS011;31343;47.520;19.144;2023-03-01T00:01:12;31.05;;;15.45;;
45618;SDS011;31343;47.520;19.144;2023-03-01T00:03:40;27.23;;;14.80;;
45618;SDS011;31343;47.520;19.144;2023-03-01T00:06:07;28.75;;;16.77;;
45618;SDS011;31343;47.520;19.144;2023-03-01T00:08:33;30.23;;;15.70;;
45618;SDS011;31343;47.520;19.144;2023-03-01T00:11:00;32.55;;;16.77;;
45618;SDS011;31343;47.520;19.144;2023-03-01T00:13:38;28.92;;;17.02;;
45618;SDS011;31343;47.520;19.144;2023-03-01T00:16:04;31.13;;;16.10;;
45618;SDS011;31343;47.520;19.144;2023-03-01T00:18:31;30.40;;;15.40;;
45618;SDS011;31343;47.520;19.144;2023-03-01T00:20:58;31.30;;;17.00;;
45618;SDS011;31343;47.520;19.144;2023-03-01T00:23:24;25.67;;;15.18;;
45618;SDS011;31343;47.520;19.144;2023-03-01T00:25:51;25.67;;;14.82;;
45618;SDS011;31343;47.520;19.144;2023-03-01T00:28:17;29.58;;;14.95;;
45618;SDS011;31343;47.520;19.144;2023-03-01T00:30:43;24.95;;;13.38;;
45618;SDS011;31343;47.520;19.144;2023-03-01T00:33:09;24.73;;;13.38;;
45618;SDS011;31343;47.520;19.144;2023-03-01T00:35:34;28.58;;;12.98;;
45618;SDS011;31343;47.520;19.144;2023-03-01T00:38:01;27.45;;;13.35;;
45618;SDS011;31343;47.520;19.144;2023-03-01T00:40:27;26.67;;;13.75;;
45618;SDS011;31343;47.520;19.144;2023-03-01T00:42:53;25.42;;;12.18;;
45618;SDS011;31343;47.520;19.144;2023-03-01T00:45:19;22.90;;;13.20;;
45618;SDS011;31343;47.520;19.144;2023-03-01T00:47:45;22.77;;;13.20;;
45618;SDS011;31343;47.520;19.144;2023-03-01T00:50:12;21.20;;;12.45;;
45618;SDS011;31343;47.520;19.144;2023-03-01T00:52:38;23.95;;;13.30;;
45618;SDS011;31343;47.520;19.144;2023-03-01T00:55:04;27.55;;;14.63;;
45618;SDS011;31343;47.520;19.144;2023-03-01T00:57:30;22.75;;;12.90;;
45618;SDS011;31343;47.520;19.144;2023-03-01T00:59:56;23.52;;;12.52;;
45618;SDS011;31343;47.520;19.144;2023-03-01T01:02:22;24.48;;;12.20;;
45618;SDS011;31343;47.520;19.144;2023-03-01T01:04:48;21.80;;;12.70;;
45618;SDS011;31343;47.520;19.144;2023-03-01T01:07:13;26.90;;;13.10;;
45618;SDS011;31343;47.520;19.144;2023-03-01T01:09:40;23.48;;;11.93;;
45618;SDS011;31343;47.520;19.144;2023-03-01T01:12:06;23.38;;;12.30;;
45618;SDS011;31343;47.520;19.144;2023-03-01T01:14:32;20.55;;;12.05;;
45618;SDS011;31343;47.520;19.144;2023-03-01T01:16:58;25.55;;;12.25;;
45618;SDS011;31343;47.520;19.144;2023-03-01T01:19:24;19.27;;;10.60;;
45618;SDS011;31343;47.520;19.144;2023-03-01T01:21:51;21.08;;;11.38;;
45618;SDS011;31343;47.520;19.144;2023-03-01T01:24:17;20.00;;;11.73;;
45618;SDS011;31343;47.520;19.144;2023-03-01T01:26:43;20.60;;;12.30;;
45618;SDS011;31343;47.520;19.144;2023-03-01T01:29:10;26.27;;;13.77;;
45618;SDS011;31343;47.520;19.144;2023-03-01T01:31:37;21.70;;;12.15;;
45618;SDS011;31343;47.520;19.144;2023-03-01T01:34:04;20.15;;;11.77;;
45618;SDS011;31343;47.520;19.144;2023-03-01T01:36:32;27.10;;;12.75;;
45618;SDS011;31343;47.520;19.144;2023-03-01T01:38:59;22.20;;;12.05;;
45618;SDS011;31343;47.520;19.144;2023-03-01T01:41:26;22.83;;;11.77;;
45618;SDS011;31343;47.520;19.144;2023-03-01T01:46:47;21.45;;;10.38;;
45618;SDS011;31343;47.520;19.144;2023-03-01T01:51:54;17.40;;;10.75;;
45618;SDS011;31343;47.520;19.144;2023-03-01T01:57:15;21.42;;;10.45;;
45618;SDS011;31343;47.520;19.144;2023-03-01T01:59:45;18.15;;;10.52;;
45618;SDS011;31343;47.520;19.144;2023-03-01T02:02:15;22.70;;;12.02;;
45618;SDS011;31343;47.520;19.144;2023-03-01T02:04:41;19.75;;;10.70;;
45618;SDS011;31343;47.520;19.144;2023-03-01T02:07:14;21.77;;;11.95;;
45618;SDS011;31343;47.520;19.144;2023-03-01T02:09:47;18.75;;;10.40;;
45618;SDS011;31343;47.520;19.144;2023-03-01T02:12:14;22.02;;;11.65;;
45618;SDS011;31343;47.520;19.144;2023-03-01T02:14:42;19.58;;;10.60;;
45618;SDS011;31343;47.520;19.144;2023-03-01T02:17:10;19.55;;;10.18;;
45618;SDS011;31343;47.520;19.144;2023-03-01T02:19:43;17.83;;;10.88;;
45618;SDS011;31343;47.520;19.144;2023-03-01T02:22:20;20.23;;;11.07;;
45618;SDS011;31343;47.520;19.144;2023-03-01T02:27:22;18.23;;;10.35;;
45618;SDS011;31343;47.520;19.144;2023-03-01T02:29:55;16.93;;;10.80;;
45618;SDS011;31343;47.520;19.144;2023-03-01T02:32:21;18.10;;;9.40;;
45618;SDS011;31343;47.520;19.144;2023-03-01T02:34:51;18.98;;;10.32;;
45618;SDS011;31343;47.520;19.144;2023-03-01T02:37:19;18.58;;;9.60;;
45618;SDS011;31343;47.520;19.144;2023-03-01T02:39:50;16.55;;;8.90;;
45618;SDS011;31343;47.520;19.144;2023-03-01T02:42:23;18.90;;;10.60;;
45618;SDS011;31343;47.520;19.144;2023-03-01T02:44:55;17.33;;;9.73;;
45618;SDS011;31343;47.520;19.144;2023-03-01T02:47:21;14.95;;;8.75;;
45618;SDS011;31343;47.520;19.144;2023-03-01T02:49:47;20.88;;;10.85;;
45618;SDS011;31343;47.520;19.144;2023-03-01T02:55:19;18.02;;;9.57;;
45618;SDS011;31343;47.520;19.144;2023-03-01T03:00:17;17.95;;;9.02;;
45618;SDS011;31343;47.520;19.144;2023-03-01T03:02:49;20.02;;;8.68;;
45618;SDS011;31343;47.520;19.144;2023-03-01T03:05:21;15.90;;;9.27;;
45618;SDS011;31343;47.520;19.144;2023-03-01T03:07:49;18.65;;;9.95;;
45618;SDS011;31343;47.520;19.144;2023-03-01T03:10:20;15.98;;;8.80;;
45618;SDS011;31343;47.520;19.144;2023-03-01T03:12:50;15.15;;;8.23;;
45618;SDS011;31343;47.520;19.144;2023-03-01T03:15:18;15.88;;;9.32;;
45618;SDS011;31343;47.520;19.144;2023-03-01T03:17:45;19.52;;;10.05;;
45618;SDS011;31343;47.520;19.144;2023-03-01T03:20:12;13.30;;;8.20;;
45618;SDS011;31343;47.520;19.144;2023-03-01T03:22:44;16.88;;;9.00;;
45618;SDS011;31343;47.520;19.144;2023-03-01T03:25:15;14.60;;;8.25;;
45618;SDS011;31343;47.520;19.144;2023-03-01T03:27:43;15.02;;;8.55;;
45618;SDS011;31343;47.520;19.144;2023-03-01T03:30:11;15.73;;;7.80;;
45618;SDS011;31343;47.520;19.144;2023-03-01T03:32:39;13.70;;;7.53;;
45618;SDS011;31343;47.520;19.144;2023-03-01T03:35:07;15.25;;;8.98;;
45618;SDS011;31343;47.520;19.144;2023-03-01T03:37:37;13.00;;;8.73;;
45618;SDS011;31343;47.520;19.144;2023-03-01T03:40:23;15.25;;;8.68;;
45618;SDS011;31343;47.520;19.144;2023-03-01T03:42:49;17.35;;;10.05;;
45618;SDS011;31343;47.520;19.144;2023-03-01T03:45:15;16.63;;;8.75;;
45618;SDS011;31343;47.520;19.144;2023-03-01T03:47:41;17.70;;;9.45;;
45618;SDS011;31343;47.520;19.144;2023-03-01T03:50:08;15.43;;;8.52;;
45618;SDS011;31343;47.520;19.144;2023-03-01T03:52:35;15.80;;;9.90;;
45618;SDS011;31343;47.520;19.144;2023-03-01T03:55:00;17.08;;;9.45;;
45618;SDS011;31343;47.520;19.144;2023-03-01T03:57:26;16.17;;;9.45;;
45618;SDS011;31343;47.520;19.144;2023-03-01T03:59:52;16.35;;;9.13;;
45618;SDS011;31343;47.520;19.144;2023-03-01T04:02:17;17.92;;;9.55;;
45618;SDS011;31343;47.520;19.144;2023-03-01T04:04:47;16.50;;;9.68;;
45618;SDS011;31343;47.520;19.144;2023-03-01T04:07:16;18.95;;;10.10;;
45618;SDS011;31343;47.520;19.144;2023-03-01T04:09:42;20.17;;;10.73;;
45618;SDS011;31343;47.520;19.144;2023-03-01T04:12:09;16.30;;;10.48;;
45618;SDS011;31343;47.520;19.144;2023-03-01T04:14:35;16.13;;;9.70;;
45618;SDS011;31343;47.520;19.144;2023-03-01T04:17:01;17.35;;;9.43;;
45618;SDS011;31343;47.520;19.144;2023-03-01T04:19:30;15.80;;;8.98;;
45618;SDS011;31343;47.520;19.144;2023-03-01T04:22:04;19.23;;;9.55;;
45618;SDS011;31343;47.520;19.144;2023-03-01T04:24:37;19.05;;;9.40;;
45618;SDS011;31343;47.520;19.144;2023-03-01T04:27:03;13.13;;;7.85;;
45618;SDS011;31343;47.520;19.144;2023-03-01T04:29:28;14.48;;;9.43;;
45618;SDS011;31343;47.520;19.144;2023-03-01T04:31:54;18.73;;;8.98;;
45618;SDS011;31343;47.520;19.144;2023-03-01T04:34:20;16.95;;;9.75;;
45618;SDS011;31343;47.520;19.144;2023-03-01T04:36:46;19.08;;;9.23;;
45618;SDS011;31343;47.520;19.144;2023-03-01T04:39:12;21.48;;;8.98;;
45618;SDS011;31343;47.520;19.144;2023-03-01T04:41:38;15.95;;;8.30;;
45618;SDS011;31343;47.520;19.144;2023-03-01T04:44:04;15.02;;;9.05;;
45618;SDS011;31343;47.520;19.144;2023-03-01T04:46:30;17.30;;;7.97;;
45618;SDS011;31343;47.520;19.144;2023-03-01T04:48:56;16.17;;;8.70;;
45618;SDS011;31343;47.520;19.144;2023-03-01T04:51:22;13.98;;;8.07;;
45618;SDS011;31343;47.520;19.144;2023-03-01T04:53:48;17.25;;;8.70;;
45618;SDS011;31343;47.520;19.144;2023-03-01T04:56:14;15.50;;;7.85;;
45618;SDS011;31343;47.520;19.144;2023-03-01T04:58:40;15.75;;;8.70;;
45618;SDS011;31343;47.520;19.144;2023-03-01T05:01:24;18.50;;;10.18;;
45618;SDS011;31343;47.520;19.144;2023-03-01T05:03:50;18.65;;;9.13;;
45618;SDS011;31343;47.520;19.144;2023-03-01T05:06:17;16.05;;;8.45;;
45618;SDS011;31343;47.520;19.144;2023-03-01T05:08:43;16.52;;;9.40;;
45618;SDS011;31343;47.520;19.144;2023-03-01T05:11:10;13.68;;;8.73;;
45618;SDS011;31343;47.520;19.144;2023-03-01T05:13:37;18.52;;;8.95;;
45618;SDS011;31343;47.520;19.144;2023-03-01T05:16:04;12.10;;;7.97;;
45618;SDS011;31343;47.520;19.144;2023-03-01T05:18:31;16.73;;;9.45;;
45618;SDS011;31343;47.520;19.144;2023-03-01T05:21:08;15.23;;;7.95;;
45618;SDS011;31343;47.520;19.144;2023-03-01T05:23:40;17.48;;;9.75;;
45618;SDS011;31343;47.520;19.144;2023-03-01T05:26:07;16.38;;;8.82;;
45618;SDS011;31343;47.520;19.144;2023-03-01T05:28:33;17.83;;;9.82;;
45618;SDS011;31343;47.520;19.144;2023-03-01T05:30:59;16.83;;;9.25;;
45618;SDS011;31343;47.520;19.144;2023-03-01T05:33:25;14.82;;;8.70;;
45618;SDS011;31343;47.520;19.144;2023-03-01T05:35:52;16.65;;;8.95;;
45618;SDS011;31343;47.520;19.144;2023-03-01T05:38:18;16.58;;;9.80;;
45618;SDS011;31343;47.520;19.144;2023-03-01T05:40:46;15.70;;;8.80;;
45618;SDS011;31343;47.520;19.144;2023-03-01T05:43:13;13.65;;;8.52;;
45618;SDS011;31343;47.520;19.144;2023-03-01T05:45:40;14.98;;;8.30;;
45618;SDS011;31343;47.520;19.144;2023-03-01T05:48:06;17.55;;;9.20;;
45618;SDS011;31343;47.520;19.144;2023-03-01T05:50:34;17.67;;;9.65;;
45618;SDS011;31343;47.520;19.144;2023-03-01T05:53:05;15.18;;;9.00;;
45618;SDS011;31343;47.520;19.144;2023-03-01T05:55:41;14.82;;;7.95;;
45618;SDS011;31343;47.520;19.144;2023-03-01T05:58:10;17.20;;;9.15;;
45618;SDS011;31343;47.520;19.144;2023-03-01T06:00:39;13.38;;;7.85;;
45618;SDS011;31343;47.520;19.144;2023-03-01T06:03:05;14.85;;;7.85;;
45618;SDS011;31343;47.520;19.144;2023-03-01T06:05:31;17.33;;;9.57;;
45618;SDS011;31343;47.520;19.144;2023-03-01T06:08:00;14.73;;;8.88;;
45618;SDS011;31343;47.520;19.144;2023-03-01T06:10:27;15.38;;;8.25;;
45618;SDS011;31343;47.520;19.144;2023-03-01T06:12:53;19.55;;;8.93;;
45618;SDS011;31343;47.520;19.144;2023-03-01T06:15:18;15.68;;;8.32;;
45618;SDS011;31343;47.520;19.144;2023-03-01T06:17:45;15.05;;;8.63;;
45618;SDS011;31343;47.520;19.144;2023-03-01T06:20:29;13.27;;;8.02;;
45618;SDS011;31343;47.520;19.144;2023-03-01T06:22:55;17.25;;;9.13;;
45618;SDS011;31343;47.520;19.144;2023-03-01T06:25:22;15.80;;;8.43;;
45618;SDS011;31343;47.520;19.144;2023-03-01T06:27:49;15.50;;;9.38;;
45618;SDS011;31343;47.520;19.144;2023-03-01T06:30:17;13.90;;;8.52;;
45618;SDS011;31343;47.520;19.144;2023-03-01T06:32:45;16.77;;;8.98;;
45618;SDS011;31343;47.520;19.144;2023-03-01T06:35:11;16.40;;;8.90;;
45618;SDS011;31343;47.520;19.144;2023-03-01T06:37:39;16.55;;;8.57;;
45618;SDS011;31343;47.520;19.144;2023-03-01T06:40:06;16.38;;;8.00;;
45618;SDS011;31343;47.520;19.144;2023-03-01T06:42:34;16.60;;;8.82;;
45618;SDS011;31343;47.520;19.144;2023-03-01T06:45:00;16.00;;;8.13;;
45618;SDS011;31343;47.520;19.144;2023-03-01T06:47:26;18.00;;;9.20;;
45618;SDS011;31343;47.520;19.144;2023-03-01T06:49:51;19.35;;;9.25;;
45618;SDS011;31343;47.520;19.144;2023-03-01T06:52:17;14.95;;;8.40;;
45618;SDS011;31343;47.520;19.144;2023-03-01T06:54:43;14.88;;;7.75;;
45618;SDS011;31343;47.520;19.144;2023-03-01T06:57:08;24.02;;;10.18;;
45618;SDS011;31343;47.520;19.144;2023-03-01T06:59:34;21.83;;;11.48;;
45618;SDS011;31343;47.520;19.144;2023-03-01T07:02:00;18.95;;;8.98;;
45618;SDS011;31343;47.520;19.144;2023-03-01T07:04:26;17.75;;;8.98;;
45618;SDS011;31343;47.520;19.144;2023-03-01T07:06:54;14.52;;;8.65;;
45618;SDS011;31343;47.520;19.144;2023-03-01T07:09:20;15.70;;;8.55;;
45618;SDS011;31343;47.520;19.144;2023-03-01T07:11:47;15.05;;;7.55;;
45618;SDS011;31343;47.520;19.144;2023-03-01T07:14:14;14.88;;;8.27;;
45618;SDS011;31343;47.520;19.144;2023-03-01T07:16:40;14.02;;;7.25;;
45618;SDS011;31343;47.520;19.144;2023-03-01T07:19:05;13.40;;;8.27;;
45618;SDS011;31343;47.520;19.144;2023-03-01T07:21:32;13.77;;;7.70;;
45618;SDS011;31343;47.520;19.144;2023-03-01T07:23:58;15.93;;;8.93;;
45618;SDS011;31343;47.520;19.144;2023-03-01T07:26:23;13.77;;;8.05;;
45618;SDS011;31343;47.520;19.144;2023-03-01T07:28:49;14.38;;;8.48;;
45618;SDS011;31343;47.520;19.144;2023-03-01T07:31:15;13.02;;;8.07;;
45618;SDS011;31343;47.520;19.144;2023-03-01T07:33:41;16.20;;;7.40;;
45618;SDS011;31343;47.520;19.144;2023-03-01T07:36:06;14.60;;;7.90;;
45618;SDS011;31343;47.520;19.144;2023-03-01T07:38:32;13.10;;;6.80;;
45618;SDS011;31343;47.520;19.144;2023-03-01T07:40:59;15.45;;;7.90;;
45618;SDS011;31343;47.520;19.144;2023-03-01T07:43:29;11.07;;;7.35;;
45618;SDS011;31343;47.520;19.144;2023-03-01T07:45:57;13.57;;;8.15;;
45618;SDS011;31343;47.520;19.144;2023-03-01T07:48:24;13.60;;;8.45;;
45618;SDS011;31343;47.520;19.144;2023-03-01T07:50:50;14.57;;;7.90;;
45618;SDS011;31343;47.520;19.144;2023-03-01T07:53:16;16.27;;;8.63;;
45618;SDS011;31343;47.520;19.144;2023-03-01T07:55:42;13.02;;;7.43;;
45618;SDS011;31343;47.520;19.144;2023-03-01T07:58:07;15.40;;;8.85;;
45618;SDS011;31343;47.520;19.144;2023-03-01T08:00:33;15.75;;;8.90;;
45618;SDS011;31343;47.520;19.144;2023-03-01T08:02:59;12.98;;;7.60;;
45618;SDS011;31343;47.520;19.144;2023-03-01T08:05:27;10.60;;;7.22;;
45618;SDS011;31343;47.520;19.144;2023-03-01T08:07:53;14.15;;;7.70;;
45618;SDS011;31343;47.520;19.144;2023-03-01T08:10:19;13.55;;;7.45;;
45618;SDS011;31343;47.520;19.144;2023-03-01T08:12:45;14.48;;;7.78;;
45618;SDS011;31343;47.520;19.144;2023-03-01T08:15:11;15.40;;;7.65;;
45618;SDS011;31343;47.520;19.144;2023-03-01T08:17:37;11.35;;;7.35;;
45618;SDS011;31343;47.520;19.144;2023-03-01T08:20:03;12.05;;;7.63;;
45618;SDS011;31343;47.520;19.144;2023-03-01T08:22:32;11.70;;;7.05;;
45618;SDS011;31343;47.520;19.144;2023-03-01T08:24:58;12.93;;;6.75;;
45618;SDS011;31343;47.520;19.144;2023-03-01T08:27:24;12.90;;;7.53;;
45618;SDS011;31343;47.520;19.144;2023-03-01T08:29:49;14.10;;;7.60;;
45618;SDS011;31343;47.520;19.144;2023-03-01T08:32:15;13.60;;;7.43;;
45618;SDS011;31343;47.520;19.144;2023-03-01T08:34:41;18.00;;;8.07;;
45618;SDS011;31343;47.520;19.144;2023-03-01T08:37:06;15.30;;;7.57;;
45618;SDS011;31343;47.520;19.144;2023-03-01T08:39:32;13.70;;;7.28;;
45618;SDS011;31343;47.520;19.144;2023-03-01T08:41:58;11.98;;;6.57;;
45618;SDS011;31343;47.520;19.144;2023-03-01T08:44:24;12.68;;;7.50;;
45618;SDS011;31343;47.520;19.144;2023-03-01T08:46:50;14.48;;;7.32;;
45618;SDS011;31343;47.520;19.144;2023-03-01T08:49:18;11.27;;;7.25;;
45618;SDS011;31343;47.520;19.144;2023-03-01T08:51:45;15.90;;;8.55;;
45618;SDS011;31343;47.520;19.144;2023-03-01T08:54:15;12.63;;;7.20;;
45618;SDS011;31343;47.520;19.144;2023-03-01T08:56:44;11.13;;;7.00;;
45618;SDS011;31343;47.520;19.144;2023-03-01T08:59:10;12.93;;;7.72;;
45618;SDS011;31343;47.520;19.144;2023-03-01T09:01:37;10.68;;;6.60;;
45618;SDS011;31343;47.520;19.144;2023-03-01T09:04:03;13.80;;;7.60;;
45618;SDS011;31343;47.520;19.144;2023-03-01T09:06:30;13.52;;;7.72;;
45618;SDS011;31343;47.520;19.144;2023-03-01T09:08:58;13.02;;;6.57;;
45618;SDS011;31343;47.520;19.144;2023-03-01T09:11:24;13.30;;;7.20;;
45618;SDS011;31343;47.520;19.144;2023-03-01T09:13:50;11.23;;;7.07;;
45618;SDS011;31343;47.520;19.144;2023-03-01T09:16:17;13.27;;;6.95;;
45618;SDS011;31343;47.520;19.144;2023-03-01T09:18:44;12.60;;;7.13;;
45618;SDS011;31343;47.520;19.144;2023-03-01T09:21:14;10.13;;;6.45;;
45618;SDS011;31343;47.520;19.144;2023-03-01T09:23:45;12.85;;;7.65;;
45618;SDS011;31343;47.520;19.144;2023-03-01T09:26:13;10.88;;;6.95;;
45618;SDS011;31343;47.520;19.144;2023-03-01T09:28:49;10.50;;;6.20;;
45618;SDS011;31343;47.520;19.144;2023-03-01T09:31:16;10.82;;;6.95;;
45618;SDS011;31343;47.520;19.144;2023-03-01T09:33:45;11.48;;;6.88;;
45618;SDS011;31343;47.520;19.144;2023-03-01T09:36:16;10.45;;;6.47;;
45618;SDS011;31343;47.520;19.144;2023-03-01T09:38:43;9.68;;;6.10;;
45618;SDS011;31343;47.520;19.144;2023-03-01T09:43:51;12.05;;;6.15;;
45618;SDS011;31343;47.520;19.144;2023-03-01T09:46:22;11.10;;;5.88;;
45618;SDS011;31343;47.520;19.144;2023-03-01T09:49:01;9.10;;;6.32;;
45618;SDS011;31343;47.520;19.144;2023-03-01T09:51:35;9.05;;;5.68;;
45618;SDS011;31343;47.520;19.144;2023-03-01T09:54:02;9.07;;;5.32;;
45618;SDS011;31343;47.520;19.144;2023-03-01T10:09:57;10.60;;;6.03;;
45618;SDS011;31343;47.520;19.144;2023-03-01T10:12:32;13.68;;;7.30;;
45618;SDS011;31343;47.520;19.144;2023-03-01T10:15:12;11.48;;;6.03;;
45618;SDS011;31343;47.520;19.144;2023-03-01T10:17:46;9.60;;;6.20;;
45618;SDS011;31343;47.520;19.144;2023-03-01T10:22:46;10.80;;;6.63;;
45618;SDS011;31343;47.520;19.144;2023-03-01T10:28:10;10.13;;;5.65;;
45618;SDS011;31343;47.520;19.144;2023-03-01T10:30:45;9.50;;;5.80;;
45618;SDS011;31343;47.520;19.144;2023-03-01T10:33:18;12.30;;;6.55;;
45618;SDS011;31343;47.520;19.144;2023-03-01T10:35:48;9.23;;;5.57;;
45618;SDS011;31343;47.520;19.144;2023-03-01T10:38:15;11.73;;;7.72;;
45618;SDS011;31343;47.520;19.144;2023-03-01T10:40:51;10.10;;;6.82;;
45618;SDS011;31343;47.520;19.144;2023-03-01T10:43:32;10.40;;;5.85;;
45618;SDS011;31343;47.520;19.144;2023-03-01T10:51:44;10.15;;;5.78;;
45618;SDS011;31343;47.520;19.144;2023-03-01T10:54:27;8.35;;;5.03;;
45618;SDS011;31343;47.520;19.144;2023-03-01T10:56:56;10.10;;;5.07;;
45618;SDS011;31343;47.520;19.144;2023-03-01T11:10:18;11.27;;;5.53;;
45618;SDS011;31343;47.520;19.144;2023-03-01T11:12:52;7.93;;;4.35;;
45618;SDS011;31343;47.520;19.144;2023-03-01T11:15:27;7.03;;;4.40;;
45618;SDS011;31343;47.520;19.144;2023-03-01T11:17:54;6.70;;;4.00;;
45618;SDS011;31343;47.520;19.144;2023-03-01T11:20:32;7.53;;;4.18;;
45618;SDS011;31343;47.520;19.144;2023-03-01T11:23:09;8.93;;;4.38;;
45618;SDS011;31343;47.520;19.144;2023-03-01T11:25:39;6.57;;;4.18;;
45618;SDS011;31343;47.520;19.144;2023-03-01T11:28:09;9.30;;;4.30;;
45618;SDS011;31343;47.520;19.144;2023-03-01T11:33:24;7.22;;;5.00;;
45618;SDS011;31343;47.520;19.144;2023-03-01T11:36:28;7.68;;;4.00;;
45618;SDS011;31343;47.520;19.144;2023-03-01T11:41:41;6.45;;;4.15;;
45618;SDS011;31343;47.520;19.144;2023-03-01T11:44:15;6.72;;;4.65;;
45618;SDS011;31343;47.520;19.144;2023-03-01T11:57:55;10.05;;;6.25;;
45618;SDS011;31343;47.520;19.144;2023-03-01T12:12:26;8.75;;;5.15;;
45618;SDS011;31343;47.520;19.144;2023-03-01T12:15:00;8.35;;;4.80;;
45618;SDS011;31343;47.520;19.144;2023-03-01T12:20:30;7.82;;;4.30;;
45618;SDS011;31343;47.520;19.144;2023-03-01T12:32:09;8.68;;;4.82;;
45618;SDS011;31343;47.520;19.144;2023-03-01T12:40:15;8.02;;;4.07;;
45618;SDS011;31343;47.520;19.144;2023-03-01T12:50:52;5.68;;;3.28;;
45618;SDS011;31343;47.520;19.144;2023-03-01T12:55:48;5.95;;;3.53;;
45618;SDS011;31343;47.520;19.144;2023-03-01T13:02:05;6.13;;;3.63;;
45618;SDS011;31343;47.520;19.144;2023-03-01T13:04:16;5.80;;;3.58;;
45618;SDS011;31343;47.520;19.144;2023-03-01T13:20:17;5.75;;;3.63;;
45618;SDS011;31343;47.520;19.144;2023-03-01T13:22:45;6.07;;;2.92;;
45618;SDS011;31343;47.520;19.144;2023-03-01T13:27:43;6.95;;;3.50;;
45618;SDS011;31343;47.520;19.144;2023-03-01T13:36:02;6.35;;;3.83;;
45618;SDS011;31343;47.520;19.144;2023-03-01T13:42:15;4.93;;;3.33;;
45618;SDS011;31343;47.520;19.144;2023-03-01T13:47:36;6.60;;;3.38;;
45618;SDS011;31343;47.520;19.144;2023-03-01T13:52:25;4.63;;;3.03;;
45618;SDS011;31343;47.520;19.144;2023-03-01T13:54:57;4.97;;;3.17;;
45618;SDS011;31343;47.520;19.144;2023-03-01T13:57:30;5.78;;;3.63;;
45618;SDS011;31343;47.520;19.144;2023-03-01T13:59:59;6.13;;;3.35;;
45618;SDS011;31343;47.520;19.144;2023-03-01T14:02:25;6.05;;;3.42;;
45618;SDS011;31343;47.520;19.144;2023-03-01T14:05:00;4.50;;;2.72;;
45618;SDS011;31343;47.520;19.144;2023-03-01T14:07:26;4.13;;;2.63;;
45618;SDS011;31343;47.520;19.144;2023-03-01T14:10:02;6.18;;;3.08;;
45618;SDS011;31343;47.520;19.144;2023-03-01T14:12:35;5.05;;;3.10;;
45618;SDS011;31343;47.520;19.144;2023-03-01T14:20:23;8.77;;;4.78;;
45618;SDS011;31343;47.520;19.144;2023-03-01T14:22:52;5.43;;;2.97;;
45618;SDS011;31343;47.520;19.144;2023-03-01T14:25:24;7.15;;;4.32;;
45618;SDS011;31343;47.520;19.144;2023-03-01T14:30:40;7.53;;;3.63;;
45618;SDS011;31343;47.520;19.144;2023-03-01T14:40:59;4.47;;;3.00;;
45618;SDS011;31343;47.520;19.144;2023-03-01T14:43:41;6.43;;;3.07;;
45618;SDS011;31343;47.520;19.144;2023-03-01T14:46:17;5.25;;;3.15;;
45618;SDS011;31343;47.520;19.144;2023-03-01T14:48:54;5.43;;;3.05;;
45618;SDS011;31343;47.520;19.144;2023-03-01T14:51:23;8.98;;;3.65;;
45618;SDS011;31343;47.520;19.144;2023-03-01T14:53:49;5.95;;;3.03;;
45618;SDS011;31343;47.520;19.144;2023-03-01T14:56:16;6.57;;;3.30;;
45618;SDS011;31343;47.520;19.144;2023-03-01T14:58:42;5.03;;;2.65;;
45618;SDS011;31343;47.520;19.144;2023-03-01T15:01:13;5.90;;;3.58;;
45618;SDS011;31343;47.520;19.144;2023-03-01T15:03:50;8.60;;;3.72;;
45618;SDS011;31343;47.520;19.144;2023-03-01T15:06:20;5.38;;;3.22;;
45618;SDS011;31343;47.520;19.144;2023-03-01T15:08:49;8.07;;;3.85;;
45618;SDS011;31343;47.520;19.144;2023-03-01T15:11:22;5.95;;;3.55;;
45618;SDS011;31343;47.520;19.144;2023-03-01T15:13:51;7.32;;;3.92;;
45618;SDS011;31343;47.520;19.144;2023-03-01T15:16:18;7.40;;;3.33;;
45618;SDS011;31343;47.520;19.144;2023-03-01T15:18:59;7.75;;;3.17;;
45618;SDS011;31343;47.520;19.144;2023-03-01T15:21:29;6.55;;;3.53;;
45618;SDS011;31343;47.520;19.144;2023-03-01T15:26:42;7.05;;;3.28;;
45618;SDS011;31343;47.520;19.144;2023-03-01T15:29:15;7.43;;;3.55;;
45618;SDS011;31343;47.520;19.144;2023-03-01T15:31:43;7.25;;;3.25;;
45618;SDS011;31343;47.520;19.144;2023-03-01T15:36:53;7.18;;;3.97;;
45618;SDS011;31343;47.520;19.144;2023-03-01T15:41:55;6.25;;;3.42;;
45618;SDS011;31343;47.520;19.144;2023-03-01T15:44:28;6.80;;;3.60;;
45618;SDS011;31343;47.520;19.144;2023-03-01T15:46:56;7.05;;;3.92;;
45618;SDS011;31343;47.520;19.144;2023-03-01T15:52:18;7.65;;;3.65;;
45618;SDS011;31343;47.520;19.144;2023-03-01T15:54:55;6.82;;;3.40;;
45618;SDS011;31343;47.520;19.144;2023-03-01T15:57:22;6.25;;;3.05;;
45618;SDS011;31343;47.520;19.144;2023-03-01T15:59:47;6.05;;;3.10;;
45618;SDS011;31343;47.520;19.144;2023-03-01T16:02:14;7.75;;;4.45;;
45618;SDS011;31343;47.520;19.144;2023-03-01T16:04:41;5.93;;;3.00;;
45618;SDS011;31343;47.520;19.144;2023-03-01T16:07:08;5.93;;;3.53;;
45618;SDS011;31343;47.520;19.144;2023-03-01T16:09:34;5.95;;;3.13;;
45618;SDS011;31343;47.520;19.144;2023-03-01T16:12:01;7.55;;;3.67;;
45618;SDS011;31343;47.520;19.144;2023-03-01T16:14:27;5.70;;;3.25;;
45618;SDS011;31343;47.520;19.144;2023-03-01T16:16:53;9.15;;;3.42;;
45618;SDS011;31343;47.520;19.144;2023-03-01T16:19:18;6.95;;;4.00;;
45618;SDS011;31343;47.520;19.144;2023-03-01T16:21:44;5.57;;;3.35;;
45618;SDS011;31343;47.520;19.144;2023-03-01T16:24:12;8.60;;;4.60;;
45618;SDS011;31343;47.520;19.144;2023-03-01T16:26:38;10.02;;;4.10;;
45618;SDS011;31343;47.520;19.144;2023-03-01T16:29:04;15.77;;;4.72;;
45618;SDS011;31343;47.520;19.144;2023-03-01T16:31:30;9.65;;;4.63;;
45618;SDS011;31343;47.520;19.144;2023-03-01T16:33:56;9.43;;;4.30;;
45618;SDS011;31343;47.520;19.144;2023-03-01T16:36:24;7.72;;;3.90;;
45618;SDS011;31343;47.520;19.144;2023-03-01T16:38:53;11.35;;;6.38;;
45618;SDS011;31343;47.520;19.144;2023-03-01T16:41:20;18.13;;;8.27;;
45618;SDS011;31343;47.520;19.144;2023-03-01T16:43:48;14.40;;;8.38;;
45618;SDS011;31343;47.520;19.144;2023-03-01T16:46:23;10.88;;;5.82;;
45618;SDS011;31343;47.520;19.144;2023-03-01T16:48:55;10.40;;;5.13;;
45618;SDS011;31343;47.520;19.144;2023-03-01T16:51:21;10.77;;;5.20;;
45618;SDS011;31343;47.520;19.144;2023-03-01T16:53:48;9.73;;;6.47;;
45618;SDS011;31343;47.520;19.144;2023-03-01T16:56:15;12.38;;;7.57;;
45618;SDS011;31343;47.520;19.144;2023-03-01T16:58:41;13.20;;;7.35;;
45618;SDS011;31343;47.520;19.144;2023-03-01T17:01:12;11.82;;;7.18;;
45618;SDS011;31343;47.520;19.144;2023-03-01T17:03:40;13.52;;;6.70;;
45618;SDS011;31343;47.520;19.144;2023-03-01T17:06:09;14.07;;;6.75;;
45618;SDS011;31343;47.520;19.144;2023-03-01T17:08:37;13.38;;;6.57;;
45618;SDS011;31343;47.520;19.144;2023-03-01T17:11:07;11.90;;;6.13;;
45618;SDS011;31343;47.520;19.144;2023-03-01T17:13:35;10.00;;;6.00;;
45618;SDS011;31343;47.520;19.144;2023-03-01T17:16:05;9.80;;;5.55;;
45618;SDS011;31343;47.520;19.144;2023-03-01T17:18:33;8.18;;;5.25;;
45618;SDS011;31343;47.520;19.144;2023-03-01T17:20:59;12.10;;;5.45;;
45618;SDS011;31343;47.520;19.144;2023-03-01T17:23:26;10.25;;;5.53;;